Aérodrome :
LOGIN :

S'inscrire | Disclaimer

   EN    FR    IT 

 










Légende :    VFR   VFR Marginal   IFR   IFR Intensif   IFR Très Intensif
Visi : 
Plafond : 
>= 8 km
>= 3000ft
5 à 8 km
1000 à 3000 ft
1500m à 5 km
500 à 1000 ft
800 à 1500m
200 à 500 ft
< 800m
< 200 ft
Symboles :   Orages  Brouillard  Fortes neiges  Fortes précipitations  Vent > 20 kt
SIGMETs :   Divers  Orages  Givrage  Turbulence  Onde Orograph.  Cendres Volcan.







- Altitude de l'aérodrome : 461 ft
- Code IATA : WIE


ETOU - Wiesbaden Army

DERNIER METAR :
  • 251456Z AUTO 05006KT 9999 FEW065 19/11 A3011 RMK AO2 SLP197 T01870108 57005 $

METARs EXPIRÉS :
  • 251356Z AUTO 08009KT 9999 BKN060 19/11 A3012 RMK AO2 SLP200 T01910109 $
  • 251256Z AUTO 05007KT 9999 BKN060 19/11 A3012 RMK AO2 SLP200 T01900113 $
  • 251156Z AUTO 08005KT 9999 CLR 18/11 A3012 RMK AO2 SLP200 T01820110 10182 20108 57008 $

TAF TAF ETOU
Valide du 25 à 11h jusqu'au 26 à 17h UTC


251100Z 2511/2617 03006KT 9999 FEW040 QNH3009INS
BECMG 2602/2603 VRB06KT 6000 BR SCT020 BKN060 QNH3010INS
BECMG 2608/2609 VRB06KT 9999 NSW FEW030 BKN070 6110008 QNH3011INS TX18/2515Z TN07/2606Z
Pas de NOTAMs connus pour ce terrain.



MET'MAP, la Météo Aéronautique d'un coup d'oeil ! - Copyright ORBIFLY Décembre 2007 - Disclaimer

ORBIFLY MET'MAP TEAM :

Programmation & Développement : Alexandra Zaïnal
Conception & Développement : Baudouin d'Aumeries
Co-Programmation & Développement : Marc-Olivier Méhu
Soutien technique & logistique : Manuel Goepfert

Contact : metmap@orbifly.com




SOURCES & CREDITS :

   NOAA